Time,TemperatureF,DewpointF,PressureIn,WindDirection,WindDirectionDegrees,WindSpeedMPH,WindSpeedGustMPH,Humidity,HourlyPrecipIn,Conditions,Clouds,dailyrainin,SoftwareType,DateUTC
2013-09-04 00:04:00,60.1,55.6,30.35,North,0,0.0,0.0,85,0.00,,,0.00,WUHU216HW,2013-09-04 05:04:00,
2013-09-04 00:09:00,60.1,55.6,30.35,North,0,0.0,0.0,85,0.00,,,0.00,WUHU216HW,2013-09-04 05:09:00,
2013-09-04 00:14:00,59.9,55.8,30.35,North,0,0.0,0.0,86,0.00,,,0.00,WUHU216HW,2013-09-04 05:14:00,
2013-09-04 00:19:00,59.8,55.6,30.35,North,0,0.0,0.0,86,0.00,,,0.00,WUHU216HW,2013-09-04 05:19:00,
2013-09-04 00:24:00,59.6,55.5,30.35,North,0,0.0,0.0,86,0.00,,,0.00,WUHU216HW,2013-09-04 05:24:00,
2013-09-04 00:29:00,59.4,55.3,30.35,North,0,0.0,0.0,86,0.00,,,0.00,WUHU216HW,2013-09-04 05:29:00,
2013-09-04 00:34:00,59.2,55.1,30.35,North,0,0.0,0.0,86,0.00,,,0.00,WUHU216HW,2013-09-04 05:34:00,
2013-09-04 00:39:00,59.2,55.1,30.35,North,0,0.0,0.0,86,0.00,,,0.00,WUHU216HW,2013-09-04 05:39:00,
2013-09-04 00:44:00,59.0,54.9,30.35,North,0,0.0,0.0,86,0.00,,,0.00,WUHU216HW,2013-09-04 05:44:00,
2013-09-04 00:49:00,58.9,55.0,30.36,North,0,0.0,0.0,87,0.00,,,0.00,WUHU216HW,2013-09-04 05:49:00,
2013-09-04 00:54:00,58.7,54.8,30.36,North,0,0.0,0.0,87,0.00,,,0.00,WUHU216HW,2013-09-04 05:54:00,
2013-09-04 00:59:00,58.5,54.6,30.36,North,0,0.0,0.0,87,0.00,,,0.00,WUHU216HW,2013-09-04 05:59:00,
2013-09-04 01:04:00,58.5,54.6,30.36,North,0,0.0,0.0,87,0.00,,,0.00,WUHU216HW,2013-09-04 06:04:00,
2013-09-04 01:09:00,58.3,54.5,30.36,North,0,0.0,0.0,87,0.00,,,0.00,WUHU216HW,2013-09-04 06:09:00,
2013-09-04 01:14:00,58.3,54.5,30.36,North,0,0.0,0.0,87,0.00,,,0.00,WUHU216HW,2013-09-04 06:14:00,
2013-09-04 01:19:00,58.3,54.5,30.36,North,0,0.0,0.0,87,0.00,,,0.00,WUHU216HW,2013-09-04 06:19:00,
2013-09-04 01:24:00,58.1,54.3,30.36,North,0,0.0,0.0,87,0.00,,,0.00,WUHU216HW,2013-09-04 06:24:00,
2013-09-04 01:29:00,58.0,54.1,30.36,North,0,0.0,0.0,87,0.00,,,0.00,WUHU216HW,2013-09-04 06:29:00,
2013-09-04 01:34:00,58.0,54.1,30.37,North,0,0.0,0.0,87,0.00,,,0.00,WUHU216HW,2013-09-04 06:34:00,
2013-09-04 01:39:00,58.0,54.1,30.37,North,0,0.0,0.0,87,0.00,,,0.00,WUHU216HW,2013-09-04 06:39:00,
2013-09-04 01:44:00,58.0,54.5,30.37,North,0,0.0,0.0,88,0.00,,,0.00,WUHU216HW,2013-09-04 06:44:00,
2013-09-04 01:49:00,57.8,54.3,30.37,North,0,0.0,0.0,88,0.00,,,0.00,WUHU216HW,2013-09-04 06:49:00,
2013-09-04 01:54:00,57.6,53.7,30.37,North,0,0.0,0.0,87,0.00,,,0.00,WUHU216HW,2013-09-04 06:54:00,
2013-09-04 01:59:00,57.6,53.7,30.37,North,0,0.0,0.0,87,0.00,,,0.00,WUHU216HW,2013-09-04 06:59:00,
2013-09-04 02:04:00,57.6,53.7,30.37,North,0,0.0,0.0,87,0.00,,,0.00,WUHU216HW,2013-09-04 07:04:00,
2013-09-04 02:09:00,57.6,53.7,30.37,North,0,0.0,0.0,87,0.00,,,0.00,WUHU216HW,2013-09-04 07:09:00,
2013-09-04 02:14:00,57.6,53.7,30.37,North,0,0.0,0.0,87,0.00,,,0.00,WUHU216HW,2013-09-04 07:14:00,
2013-09-04 02:19:00,57.6,54.1,30.37,North,0,0.0,0.0,88,0.00,,,0.00,WUHU216HW,2013-09-04 07:19:00,
2013-09-04 02:24:00,57.6,54.1,30.37,North,0,0.0,0.0,88,0.00,,,0.00,WUHU216HW,2013-09-04 07:24:00,
2013-09-04 02:29:00,57.6,54.1,30.37,North,0,0.0,0.0,88,0.00,,,0.00,WUHU216HW,2013-09-04 07:29:00,
2013-09-04 02:34:00,57.6,54.1,30.37,North,0,0.0,0.0,88,0.00,,,0.00,WUHU216HW,2013-09-04 07:34:00,
2013-09-04 02:39:00,57.6,54.1,30.38,North,0,0.0,0.0,88,0.00,,,0.00,WUHU216HW,2013-09-04 07:39:00,
2013-09-04 02:44:00,57.4,53.9,30.38,North,0,0.0,0.0,88,0.00,,,0.00,WUHU216HW,2013-09-04 07:44:00,
2013-09-04 02:49:00,57.4,53.9,30.38,North,0,0.0,0.0,88,0.00,,,0.00,WUHU216HW,2013-09-04 07:49:00,
2013-09-04 02:54:00,57.2,53.7,30.38,North,0,0.0,0.0,88,0.00,,,0.00,WUHU216HW,2013-09-04 07:54:00,
2013-09-04 02:59:00,57.1,53.6,30.38,North,0,0.0,0.0,88,0.00,,,0.00,WUHU216HW,2013-09-04 07:59:00,
2013-09-04 03:04:00,56.9,53.4,30.38,North,0,0.0,0.0,88,0.00,,,0.00,WUHU216HW,2013-09-04 08:04:00,
2013-09-04 03:09:00,56.7,53.2,30.38,North,0,0.0,0.0,88,0.00,,,0.00,WUHU216HW,2013-09-04 08:09:00,
2013-09-04 03:14:00,56.5,53.0,30.38,North,0,0.0,0.0,88,0.00,,,0.00,WUHU216HW,2013-09-04 08:14:00,
2013-09-04 03:19:00,56.7,53.2,30.38,North,0,0.0,0.0,88,0.00,,,0.00,WUHU216HW,2013-09-04 08:19:00,
2013-09-04 03:24:00,56.9,53.6,30.38,North,0,0.0,0.0,89,0.00,,,0.00,WUHU216HW,2013-09-04 08:24:00,
2013-09-04 03:29:00,57.1,53.8,30.38,North,0,0.0,0.0,89,0.00,,,0.00,WUHU216HW,2013-09-04 08:29:00,
2013-09-04 03:34:00,57.2,54.0,30.38,North,0,0.0,0.0,89,0.00,,,0.00,WUHU216HW,2013-09-04 08:34:00,
2013-09-04 03:39:00,57.1,53.8,30.38,North,0,0.0,0.0,89,0.00,,,0.00,WUHU216HW,2013-09-04 08:39:00,
2013-09-04 03:44:00,57.2,54.0,30.38,North,0,0.0,0.0,89,0.00,,,0.00,WUHU216HW,2013-09-04 08:44:00,
2013-09-04 03:49:00,57.2,54.0,30.38,North,0,0.0,0.0,89,0.00,,,0.00,WUHU216HW,2013-09-04 08:49:00,
2013-09-04 03:54:00,57.2,54.0,30.38,North,0,0.0,0.0,89,0.00,,,0.00,WUHU216HW,2013-09-04 08:54:00,
2013-09-04 03:59:00,57.1,53.8,30.39,North,0,0.0,0.0,89,0.00,,,0.00,WUHU216HW,2013-09-04 08:59:00,
2013-09-04 04:04:00,56.9,53.6,30.39,North,0,0.0,0.0,89,0.00,,,0.00,WUHU216HW,2013-09-04 09:04:00,
2013-09-04 04:09:00,56.7,53.5,30.39,North,0,0.0,0.0,89,0.00,,,0.00,WUHU216HW,2013-09-04 09:09:00,
2013-09-04 04:14:00,56.9,53.6,30.39,North,0,0.0,0.0,89,0.00,,,0.00,WUHU216HW,2013-09-04 09:14:00,
2013-09-04 04:19:00,56.9,53.6,30.39,North,0,0.0,0.0,89,0.00,,,0.00,WUHU216HW,2013-09-04 09:19:00,
2013-09-04 04:24:00,57.1,53.8,30.39,North,0,0.0,0.0,89,0.00,,,0.00,WUHU216HW,2013-09-04 09:24:00,
2013-09-04 04:29:00,57.1,53.8,30.40,North,0,0.0,0.0,89,0.00,,,0.00,WUHU216HW,2013-09-04 09:29:00,
2013-09-04 04:34:00,56.9,53.6,30.40,North,0,0.0,0.0,89,0.00,,,0.00,WUHU216HW,2013-09-04 09:34:00,
2013-09-04 04:39:00,57.1,53.8,30.39,North,0,0.0,0.0,89,0.00,,,0.00,WUHU216HW,2013-09-04 09:39:00,
2013-09-04 04:44:00,57.1,53.8,30.39,North,0,0.0,0.0,89,0.00,,,0.00,WUHU216HW,2013-09-04 09:44:00,
2013-09-04 04:49:00,57.1,53.8,30.40,North,0,0.0,0.0,89,0.00,,,0.00,WUHU216HW,2013-09-04 09:49:00,
2013-09-04 04:54:00,56.9,53.6,30.40,North,0,0.0,0.0,89,0.00,,,0.00,WUHU216HW,2013-09-04 09:54:00,
2013-09-04 04:59:00,56.9,54.0,30.40,North,0,0.0,0.0,90,0.00,,,0.00,WUHU216HW,2013-09-04 09:59:00,
2013-09-04 05:04:00,56.9,54.0,30.40,North,0,0.0,0.0,90,0.00,,,0.00,WUHU216HW,2013-09-04 10:04:00,
2013-09-04 05:09:00,56.9,54.0,30.40,North,0,0.0,0.0,90,0.00,,,0.00,WUHU216HW,2013-09-04 10:09:00,
2013-09-04 05:14:00,56.9,54.0,30.40,North,0,0.0,0.0,90,0.00,,,0.00,WUHU216HW,2013-09-04 10:14:00,
2013-09-04 05:19:00,56.9,54.0,30.40,North,0,0.0,0.0,90,0.00,,,0.00,WUHU216HW,2013-09-04 10:19:00,
2013-09-04 05:24:00,56.9,54.0,30.40,North,0,0.0,0.0,90,0.00,,,0.00,WUHU216HW,2013-09-04 10:24:00,
2013-09-04 05:29:00,56.7,53.8,30.40,North,0,0.0,0.0,90,0.00,,,0.00,WUHU216HW,2013-09-04 10:29:00,
2013-09-04 05:34:00,56.5,53.6,30.41,North,0,0.0,0.0,90,0.00,,,0.00,WUHU216HW,2013-09-04 10:34:00,
2013-09-04 05:39:00,56.5,53.6,30.41,North,0,0.0,0.0,90,0.00,,,0.00,WUHU216HW,2013-09-04 10:39:00,
2013-09-04 05:44:00,56.3,53.5,30.40,North,0,0.0,0.0,90,0.00,,,0.00,WUHU216HW,2013-09-04 10:44:00,
2013-09-04 05:49:00,56.2,53.3,30.40,North,0,0.0,0.0,90,0.00,,,0.00,WUHU216HW,2013-09-04 10:49:00,
2013-09-04 05:54:00,56.0,53.1,30.41,North,0,0.0,0.0,90,0.00,,,0.00,WUHU216HW,2013-09-04 10:54:00,
2013-09-04 05:59:00,56.0,53.1,30.41,North,0,0.0,0.0,90,0.00,,,0.00,WUHU216HW,2013-09-04 10:59:00,
2013-09-04 06:04:00,55.8,52.9,30.41,North,0,0.0,0.0,90,0.00,,,0.00,WUHU216HW,2013-09-04 11:04:00,
2013-09-04 06:09:00,55.8,52.9,30.41,North,0,0.0,0.0,90,0.00,,,0.00,WUHU216HW,2013-09-04 11:09:00,
2013-09-04 06:14:00,55.8,52.9,30.41,North,0,0.0,0.0,90,0.00,,,0.00,WUHU216HW,2013-09-04 11:14:00,
2013-09-04 06:19:00,55.8,53.2,30.42,North,0,0.0,0.0,91,0.00,,,0.00,WUHU216HW,2013-09-04 11:19:00,
2013-09-04 06:24:00,55.8,53.2,30.42,North,0,0.0,0.0,91,0.00,,,0.00,WUHU216HW,2013-09-04 11:24:00,
2013-09-04 06:29:00,55.6,53.0,30.42,North,0,0.0,0.0,91,0.00,,,0.00,WUHU216HW,2013-09-04 11:29:00,
2013-09-04 06:34:00,55.6,53.0,30.42,North,0,0.0,0.0,91,0.00,,,0.00,WUHU216HW,2013-09-04 11:34:00,
2013-09-04 06:39:00,55.8,53.2,30.42,North,0,0.0,0.0,91,0.00,,,0.00,WUHU216HW,2013-09-04 11:39:00,
2013-09-04 06:44:00,55.8,53.2,30.42,North,0,0.0,0.0,91,0.00,,,0.00,WUHU216HW,2013-09-04 11:44:00,
2013-09-04 06:49:00,56.0,53.4,30.42,North,0,0.0,0.0,91,0.00,,,0.00,WUHU216HW,2013-09-04 11:49:00,
2013-09-04 06:54:00,56.5,53.9,30.42,North,0,0.0,0.0,91,0.00,,,0.00,WUHU216HW,2013-09-04 11:54:00,
2013-09-04 06:59:00,57.4,54.8,30.42,North,0,0.0,0.0,91,0.00,,,0.00,WUHU216HW,2013-09-04 11:59:00,
2013-09-04 07:04:00,58.9,56.3,30.42,North,0,0.0,0.0,91,0.00,,,0.00,WUHU216HW,2013-09-04 12:04:00,
2013-09-04 07:09:00,60.3,58.0,30.42,North,0,0.0,0.0,92,0.00,,,0.00,WUHU216HW,2013-09-04 12:09:00,
2013-09-04 07:14:00,61.4,59.0,30.43,North,0,0.0,0.0,92,0.00,,,0.00,WUHU216HW,2013-09-04 12:14:00,
2013-09-04 07:19:00,62.8,60.5,30.43,North,0,0.0,0.0,92,0.00,,,0.00,WUHU216HW,2013-09-04 12:19:00,
2013-09-04 07:24:00,64.1,61.5,30.43,North,0,0.0,0.0,91,0.00,,,0.00,WUHU216HW,2013-09-04 12:24:00,
2013-09-04 07:29:00,65.3,62.0,30.43,North,0,0.0,0.0,89,0.00,,,0.00,WUHU216HW,2013-09-04 12:29:00,
2013-09-04 07:34:00,66.4,62.7,30.43,North,0,0.0,0.0,88,0.00,,,0.00,WUHU216HW,2013-09-04 12:34:00,
2013-09-04 07:39:00,67.3,62.6,30.43,North,0,0.0,0.0,85,0.00,,,0.00,WUHU216HW,2013-09-04 12:39:00,
2013-09-04 07:44:00,67.5,62.2,30.44,North,0,0.0,0.0,83,0.00,,,0.00,WUHU216HW,2013-09-04 12:44:00,
2013-09-04 07:49:00,67.5,61.8,30.44,North,0,0.0,0.0,82,0.00,,,0.00,WUHU216HW,2013-09-04 12:49:00,
2013-09-04 07:54:00,67.5,61.6,30.44,North,0,0.0,0.0,81,0.00,,,0.00,WUHU216HW,2013-09-04 12:54:00,
2013-09-04 07:59:00,67.5,61.2,30.43,North,0,0.0,0.0,80,0.00,,,0.00,WUHU216HW,2013-09-04 12:59:00,
2013-09-04 08:04:00,67.7,61.4,30.44,North,0,0.0,0.0,80,0.00,,,0.00,WUHU216HW,2013-09-04 13:04:00,
2013-09-04 08:09:00,68.0,61.4,30.43,North,0,0.0,0.0,79,0.00,,,0.00,WUHU216HW,2013-09-04 13:09:00,
2013-09-04 08:14:00,68.4,61.7,30.44,North,0,0.0,0.0,79,0.00,,,0.00,WUHU216HW,2013-09-04 13:14:00,
2013-09-04 08:19:00,68.8,61.7,30.43,North,0,0.0,0.0,78,0.00,,,0.00,WUHU216HW,2013-09-04 13:19:00,
2013-09-04 08:24:00,69.3,62.1,30.43,North,0,0.0,0.0,78,0.00,,,0.00,WUHU216HW,2013-09-04 13:24:00,
2013-09-04 08:29:00,69.8,62.2,30.44,North,0,0.0,0.0,77,0.00,,,0.00,WUHU216HW,2013-09-04 13:29:00,
2013-09-04 08:34:00,70.2,62.2,30.44,North,0,0.0,0.0,76,0.00,,,0.00,WUHU216HW,2013-09-04 13:34:00,
2013-09-04 08:39:00,70.2,61.8,30.44,North,0,0.0,0.0,75,0.00,,,0.00,WUHU216HW,2013-09-04 13:39:00,
2013-09-04 08:44:00,70.4,61.7,30.44,North,0,0.0,0.0,74,0.00,,,0.00,WUHU216HW,2013-09-04 13:44:00,
2013-09-04 08:49:00,70.6,61.8,30.44,North,0,0.0,0.0,74,0.00,,,0.00,WUHU216HW,2013-09-04 13:49:00,
2013-09-04 08:54:00,70.6,61.8,30.44,North,0,0.0,0.0,74,0.00,,,0.00,WUHU216HW,2013-09-04 13:54:00,
2013-09-04 08:59:00,70.7,62.0,30.44,North,0,0.0,0.0,74,0.00,,,0.00,WUHU216HW,2013-09-04 13:59:00,
2013-09-04 09:04:00,70.9,62.2,30.44,North,0,0.0,0.0,74,0.00,,,0.00,WUHU216HW,2013-09-04 14:04:00,
2013-09-04 09:09:00,71.3,62.2,30.45,North,0,0.0,0.0,73,0.00,,,0.00,WUHU216HW,2013-09-04 14:09:00,
2013-09-04 09:14:00,71.6,62.6,30.45,North,0,0.0,0.0,73,0.00,,,0.00,WUHU216HW,2013-09-04 14:14:00,
2013-09-04 09:19:00,72.0,62.9,30.45,North,0,0.0,0.0,73,0.00,,,0.00,WUHU216HW,2013-09-04 14:19:00,
2013-09-04 09:24:00,72.4,62.8,30.45,North,0,0.0,0.0,72,0.00,,,0.00,WUHU216HW,2013-09-04 14:24:00,
2013-09-04 09:29:00,72.7,62.8,30.45,North,0,0.0,0.0,71,0.00,,,0.00,WUHU216HW,2013-09-04 14:29:00,
2013-09-04 09:34:00,73.1,63.2,30.45,North,0,0.0,0.0,71,0.00,,,0.00,WUHU216HW,2013-09-04 14:34:00,
2013-09-04 09:39:00,73.8,63.6,30.45,North,0,0.0,0.0,70,0.00,,,0.00,WUHU216HW,2013-09-04 14:39:00,
2013-09-04 09:44:00,74.2,63.4,30.45,North,0,0.0,0.0,69,0.00,,,0.00,WUHU216HW,2013-09-04 14:44:00,
2013-09-04 09:49:00,74.5,63.3,30.45,North,0,0.0,0.0,68,0.00,,,0.00,WUHU216HW,2013-09-04 14:49:00,
2013-09-04 09:54:00,74.7,63.0,30.45,North,0,0.0,0.0,67,0.00,,,0.00,WUHU216HW,2013-09-04 14:54:00,
2013-09-04 09:59:00,75.1,63.4,30.45,North,0,0.0,0.0,67,0.00,,,0.00,WUHU216HW,2013-09-04 14:59:00,
2013-09-04 10:04:00,75.6,63.5,30.45,North,0,0.0,0.0,66,0.00,,,0.00,WUHU216HW,2013-09-04 15:04:00,
2013-09-04 10:09:00,76.0,63.7,30.45,North,0,0.0,0.0,66,0.00,,,0.00,WUHU216HW,2013-09-04 15:09:00,
2013-09-04 10:14:00,76.1,63.1,30.45,North,0,0.0,0.0,64,0.00,,,0.00,WUHU216HW,2013-09-04 15:14:00,
2013-09-04 10:19:00,76.5,62.9,30.45,North,0,0.0,0.0,63,0.00,,,0.00,WUHU216HW,2013-09-04 15:19:00,
2013-09-04 10:24:00,76.7,63.1,30.45,North,0,0.0,0.0,63,0.00,,,0.00,WUHU216HW,2013-09-04 15:24:00,
2013-09-04 10:29:00,76.9,62.8,30.45,North,0,0.0,0.0,62,0.00,,,0.00,WUHU216HW,2013-09-04 15:29:00,
2013-09-04 10:34:00,77.0,63.0,30.46,North,0,0.0,0.0,62,0.00,,,0.00,WUHU216HW,2013-09-04 15:34:00,
2013-09-04 10:39:00,77.4,63.4,30.45,North,0,0.0,0.0,62,0.00,,,0.00,WUHU216HW,2013-09-04 15:39:00,
2013-09-04 10:44:00,77.6,63.1,30.45,North,0,0.0,0.0,61,0.00,,,0.00,WUHU216HW,2013-09-04 15:44:00,
2013-09-04 10:49:00,77.9,63.5,30.45,North,0,0.0,0.0,61,0.00,,,0.00,WUHU216HW,2013-09-04 15:49:00,
2013-09-04 10:54:00,78.3,63.4,30.45,North,0,0.0,0.0,60,0.00,,,0.00,WUHU216HW,2013-09-04 15:54:00,
2013-09-04 10:59:00,78.8,63.9,30.45,North,0,0.0,0.0,60,0.00,,,0.00,WUHU216HW,2013-09-04 15:59:00,
2013-09-04 11:04:00,79.0,63.5,30.45,North,0,0.0,0.0,59,0.00,,,0.00,WUHU216HW,2013-09-04 16:04:00,
2013-09-04 11:09:00,79.2,63.2,30.45,North,0,0.0,0.0,58,0.00,,,0.00,WUHU216HW,2013-09-04 16:09:00,
2013-09-04 11:14:00,79.4,62.8,30.45,North,0,0.0,0.0,57,0.00,,,0.00,WUHU216HW,2013-09-04 16:14:00,
2013-09-04 11:19:00,79.6,63.0,30.45,North,0,0.0,0.0,57,0.00,,,0.00,WUHU216HW,2013-09-04 16:19:00,
2013-09-04 11:24:00,79.6,63.6,30.45,North,0,0.0,0.0,58,0.00,,,0.00,WUHU216HW,2013-09-04 16:24:00,
2013-09-04 11:29:00,79.7,63.6,30.45,North,0,0.0,0.0,58,0.00,,,0.00,WUHU216HW,2013-09-04 16:29:00,
2013-09-04 11:34:00,79.9,63.8,30.45,North,0,0.0,0.0,58,0.00,,,0.00,WUHU216HW,2013-09-04 16:34:00,
2013-09-04 11:39:00,80.3,63.6,30.45,North,0,0.0,0.0,57,0.00,,,0.00,WUHU216HW,2013-09-04 16:39:00,
2013-09-04 11:44:00,80.6,63.5,30.45,North,0,0.0,0.0,56,0.00,,,0.00,WUHU216HW,2013-09-04 16:44:00,
2013-09-04 11:49:00,80.8,63.6,30.45,North,0,0.0,0.0,56,0.00,,,0.00,WUHU216HW,2013-09-04 16:49:00,
2013-09-04 11:54:00,81.0,63.7,30.44,North,0,0.0,0.0,56,0.00,,,0.00,WUHU216HW,2013-09-04 16:54:00,
2013-09-04 11:59:00,81.0,63.7,30.45,North,0,0.0,0.0,56,0.00,,,0.00,WUHU216HW,2013-09-04 16:59:00,
2013-09-04 12:04:00,81.2,63.4,30.45,North,0,0.0,0.0,55,0.00,,,0.00,WUHU216HW,2013-09-04 17:04:00,
2013-09-04 12:09:00,81.4,63.5,30.44,North,0,0.0,0.0,55,0.00,,,0.00,WUHU216HW,2013-09-04 17:09:00,
2013-09-04 12:14:00,81.4,63.5,30.45,North,0,0.0,0.0,55,0.00,,,0.00,WUHU216HW,2013-09-04 17:14:00,
2013-09-04 12:19:00,81.4,63.5,30.44,North,0,0.0,0.0,55,0.00,,,0.00,WUHU216HW,2013-09-04 17:19:00,
2013-09-04 12:24:00,81.7,63.4,30.44,North,0,0.0,0.0,54,0.00,,,0.00,WUHU216HW,2013-09-04 17:24:00,
2013-09-04 12:29:00,81.9,63.0,30.44,North,0,0.0,0.0,53,0.00,,,0.00,WUHU216HW,2013-09-04 17:29:00,
2013-09-04 12:34:00,82.1,62.6,30.44,North,0,0.0,0.0,52,0.00,,,0.00,WUHU216HW,2013-09-04 17:34:00,
2013-09-04 12:39:00,82.3,62.8,30.44,North,0,0.0,0.0,52,0.00,,,0.00,WUHU216HW,2013-09-04 17:39:00,
2013-09-04 12:44:00,82.4,63.0,30.44,North,0,0.0,0.0,52,0.00,,,0.00,WUHU216HW,2013-09-04 17:44:00,
2013-09-04 12:49:00,82.4,63.5,30.44,North,0,0.0,0.0,53,0.00,,,0.00,WUHU216HW,2013-09-04 17:49:00,
2013-09-04 12:54:00,82.4,63.0,30.44,North,0,0.0,0.0,52,0.00,,,0.00,WUHU216HW,2013-09-04 17:54:00,
2013-09-04 12:59:00,82.4,63.5,30.44,North,0,0.0,0.0,53,0.00,,,0.00,WUHU216HW,2013-09-04 17:59:00,
2013-09-04 13:04:00,82.4,63.5,30.44,North,0,0.0,0.0,53,0.00,,,0.00,WUHU216HW,2013-09-04 18:04:00,
2013-09-04 13:09:00,82.4,63.0,30.44,North,0,0.0,0.0,52,0.00,,,0.00,WUHU216HW,2013-09-04 18:09:00,
2013-09-04 13:14:00,82.6,63.6,30.43,North,0,0.0,0.0,53,0.00,,,0.00,WUHU216HW,2013-09-04 18:14:00,
2013-09-04 13:19:00,82.6,63.2,30.43,North,0,0.0,0.0,52,0.00,,,0.00,WUHU216HW,2013-09-04 18:19:00,
2013-09-04 13:24:00,83.0,63.6,30.43,North,0,0.0,0.0,52,0.00,,,0.00,WUHU216HW,2013-09-04 18:24:00,
2013-09-04 13:29:00,83.0,63.0,30.43,North,0,0.0,0.0,51,0.00,,,0.00,WUHU216HW,2013-09-04 18:29:00,
2013-09-04 13:34:00,83.2,63.7,30.43,North,0,0.0,0.0,52,0.00,,,0.00,WUHU216HW,2013-09-04 18:34:00,
2013-09-04 13:39:00,83.3,64.4,30.44,North,0,0.0,0.0,53,0.00,,,0.00,WUHU216HW,2013-09-04 18:39:00,
2013-09-04 13:44:00,83.3,64.4,30.43,North,0,0.0,0.0,53,0.00,,,0.00,WUHU216HW,2013-09-04 18:44:00,
2013-09-04 13:49:00,83.2,63.7,30.43,North,0,0.0,0.0,52,0.00,,,0.00,WUHU216HW,2013-09-04 18:49:00,
2013-09-04 13:54:00,83.0,64.0,30.43,North,0,0.0,0.0,53,0.00,,,0.00,WUHU216HW,2013-09-04 18:54:00,
2013-09-04 13:59:00,82.8,63.8,30.43,North,0,0.0,0.0,53,0.00,,,0.00,WUHU216HW,2013-09-04 18:59:00,
2013-09-04 14:04:00,82.8,63.8,30.43,North,0,0.0,0.0,53,0.00,,,0.00,WUHU216HW,2013-09-04 19:04:00,
2013-09-04 14:09:00,82.8,63.4,30.43,North,0,0.0,0.0,52,0.00,,,0.00,WUHU216HW,2013-09-04 19:09:00,
2013-09-04 14:14:00,82.8,63.4,30.43,North,0,0.0,0.0,52,0.00,,,0.00,WUHU216HW,2013-09-04 19:14:00,
2013-09-04 14:19:00,83.0,63.6,30.42,North,0,0.0,0.0,52,0.00,,,0.00,WUHU216HW,2013-09-04 19:19:00,
2013-09-04 14:24:00,83.0,64.0,30.42,North,0,0.0,0.0,53,0.00,,,0.00,WUHU216HW,2013-09-04 19:24:00,
2013-09-04 14:29:00,83.0,64.0,30.42,North,0,0.0,0.0,53,0.00,,,0.00,WUHU216HW,2013-09-04 19:29:00,
2013-09-04 14:34:00,83.0,64.0,30.42,North,0,0.0,0.0,53,0.00,,,0.00,WUHU216HW,2013-09-04 19:34:00,
2013-09-04 14:39:00,82.8,63.8,30.42,North,0,0.0,0.0,53,0.00,,,0.00,WUHU216HW,2013-09-04 19:39:00,
2013-09-04 14:44:00,82.8,63.4,30.41,North,0,0.0,0.0,52,0.00,,,0.00,WUHU216HW,2013-09-04 19:44:00,
2013-09-04 14:49:00,83.0,64.5,30.42,North,0,0.0,0.0,54,0.00,,,0.00,WUHU216HW,2013-09-04 19:49:00,
2013-09-04 14:54:00,82.8,63.8,30.41,North,0,0.0,0.0,53,0.00,,,0.00,WUHU216HW,2013-09-04 19:54:00,
2013-09-04 14:59:00,82.8,63.8,30.42,North,0,0.0,0.0,53,0.00,,,0.00,WUHU216HW,2013-09-04 19:59:00,
2013-09-04 15:04:00,82.8,64.4,30.41,North,0,0.0,0.0,54,0.00,,,0.00,WUHU216HW,2013-09-04 20:04:00,
2013-09-04 15:09:00,82.8,63.8,30.41,North,0,0.0,0.0,53,0.00,,,0.00,WUHU216HW,2013-09-04 20:09:00,
2013-09-04 15:14:00,82.8,64.4,30.41,North,0,0.0,0.0,54,0.00,,,0.00,WUHU216HW,2013-09-04 20:14:00,
2013-09-04 15:19:00,82.8,63.8,30.41,North,0,0.0,0.0,53,0.00,,,0.00,WUHU216HW,2013-09-04 20:19:00,
2013-09-04 15:24:00,83.0,63.6,30.40,North,0,0.0,0.0,52,0.00,,,0.00,WUHU216HW,2013-09-04 20:24:00,
2013-09-04 15:29:00,83.0,64.0,30.40,North,0,0.0,0.0,53,0.00,,,0.00,WUHU216HW,2013-09-04 20:29:00,
2013-09-04 15:34:00,83.0,64.0,30.40,North,0,0.0,0.0,53,0.00,,,0.00,WUHU216HW,2013-09-04 20:34:00,
2013-09-04 15:39:00,83.0,64.0,30.40,North,0,0.0,0.0,53,0.00,,,0.00,WUHU216HW,2013-09-04 20:39:00,
2013-09-04 15:44:00,83.0,64.5,30.40,North,0,0.0,0.0,54,0.00,,,0.00,WUHU216HW,2013-09-04 20:44:00,
2013-09-04 15:49:00,82.8,64.4,30.40,North,0,0.0,0.0,54,0.00,,,0.00,WUHU216HW,2013-09-04 20:49:00,
2013-09-04 15:54:00,82.6,64.2,30.40,North,0,0.0,0.0,54,0.00,,,0.00,WUHU216HW,2013-09-04 20:54:00,
2013-09-04 15:59:00,82.8,64.4,30.40,North,0,0.0,0.0,54,0.00,,,0.00,WUHU216HW,2013-09-04 20:59:00,
2013-09-04 16:04:00,82.8,64.4,30.40,North,0,0.0,0.0,54,0.00,,,0.00,WUHU216HW,2013-09-04 21:04:00,
2013-09-04 16:09:00,83.0,64.5,30.40,North,0,0.0,0.0,54,0.00,,,0.00,WUHU216HW,2013-09-04 21:09:00,
2013-09-04 16:14:00,83.2,64.2,30.39,North,0,0.0,0.0,53,0.00,,,0.00,WUHU216HW,2013-09-04 21:14:00,
2013-09-04 16:19:00,83.3,64.4,30.39,North,0,0.0,0.0,53,0.00,,,0.00,WUHU216HW,2013-09-04 21:19:00,
2013-09-04 16:24:00,83.5,65.1,30.40,North,0,0.0,0.0,54,0.00,,,0.00,WUHU216HW,2013-09-04 21:24:00,
2013-09-04 16:29:00,83.5,64.5,30.39,North,0,0.0,0.0,53,0.00,,,0.00,WUHU216HW,2013-09-04 21:29:00,
2013-09-04 16:34:00,83.5,65.1,30.39,North,0,0.0,0.0,54,0.00,,,0.00,WUHU216HW,2013-09-04 21:34:00,
2013-09-04 16:39:00,83.5,65.1,30.39,North,0,0.0,0.0,54,0.00,,,0.00,WUHU216HW,2013-09-04 21:39:00,
2013-09-04 16:44:00,83.3,64.9,30.39,North,0,0.0,0.0,54,0.00,,,0.00,WUHU216HW,2013-09-04 21:44:00,
2013-09-04 16:49:00,83.3,64.4,30.38,North,0,0.0,0.0,53,0.00,,,0.00,WUHU216HW,2013-09-04 21:49:00,
2013-09-04 16:54:00,83.2,64.7,30.38,North,0,0.0,0.0,54,0.00,,,0.00,WUHU216HW,2013-09-04 21:54:00,
2013-09-04 16:59:00,83.2,64.7,30.38,North,0,0.0,0.0,54,0.00,,,0.00,WUHU216HW,2013-09-04 21:59:00,
2013-09-04 17:04:00,83.0,65.1,30.39,North,0,0.0,0.0,55,0.00,,,0.00,WUHU216HW,2013-09-04 22:04:00,
2013-09-04 17:09:00,82.8,64.9,30.39,North,0,0.0,0.0,55,0.00,,,0.00,WUHU216HW,2013-09-04 22:09:00,
2013-09-04 17:14:00,82.8,64.9,30.39,North,0,0.0,0.0,55,0.00,,,0.00,WUHU216HW,2013-09-04 22:14:00,
2013-09-04 17:19:00,82.4,64.5,30.38,North,0,0.0,0.0,55,0.00,,,0.00,WUHU216HW,2013-09-04 22:19:00,
2013-09-04 17:24:00,82.4,65.1,30.38,North,0,0.0,0.0,56,0.00,,,0.00,WUHU216HW,2013-09-04 22:24:00,
2013-09-04 17:29:00,82.4,65.1,30.38,North,0,0.0,0.0,56,0.00,,,0.00,WUHU216HW,2013-09-04 22:29:00,
2013-09-04 17:34:00,82.4,65.1,30.38,North,0,0.0,0.0,56,0.00,,,0.00,WUHU216HW,2013-09-04 22:34:00,
2013-09-04 17:39:00,82.4,65.1,30.38,North,0,0.0,0.0,56,0.00,,,0.00,WUHU216HW,2013-09-04 22:39:00,
2013-09-04 17:44:00,82.1,65.3,30.38,North,0,0.0,0.0,57,0.00,,,0.00,WUHU216HW,2013-09-04 22:44:00,
2013-09-04 17:49:00,82.1,65.3,30.38,North,0,0.0,0.0,57,0.00,,,0.00,WUHU216HW,2013-09-04 22:49:00,
2013-09-04 17:54:00,81.5,65.3,30.38,North,0,0.0,0.0,58,0.00,,,0.00,WUHU216HW,2013-09-04 22:54:00,
2013-09-04 17:59:00,81.4,65.6,30.38,North,0,0.0,0.0,59,0.00,,,0.00,WUHU216HW,2013-09-04 22:59:00,
2013-09-04 18:04:00,81.0,65.4,30.38,North,0,0.0,0.0,59,0.00,,,0.00,WUHU216HW,2013-09-04 23:04:00,
2013-09-04 18:09:00,80.6,65.0,30.38,North,0,0.0,0.0,59,0.00,,,0.00,WUHU216HW,2013-09-04 23:09:00,
2013-09-04 18:14:00,80.3,65.2,30.39,North,0,0.0,0.0,60,0.00,,,0.00,WUHU216HW,2013-09-04 23:14:00,
2013-09-04 18:19:00,80.1,65.1,30.39,North,0,0.0,0.0,60,0.00,,,0.00,WUHU216HW,2013-09-04 23:19:00,
2013-09-04 18:24:00,79.7,64.7,30.38,North,0,0.0,0.0,60,0.00,,,0.00,WUHU216HW,2013-09-04 23:24:00,
2013-09-04 18:29:00,79.4,64.8,30.39,North,0,0.0,0.0,61,0.00,,,0.00,WUHU216HW,2013-09-04 23:29:00,
2013-09-04 18:34:00,79.2,64.6,30.39,North,0,0.0,0.0,61,0.00,,,0.00,WUHU216HW,2013-09-04 23:34:00,
2013-09-04 18:39:00,78.8,64.4,30.39,North,0,0.0,0.0,61,0.00,,,0.00,WUHU216HW,2013-09-04 23:39:00,
2013-09-04 18:44:00,78.5,64.0,30.38,North,0,0.0,0.0,61,0.00,,,0.00,WUHU216HW,2013-09-04 23:44:00,
2013-09-04 18:49:00,78.3,64.3,30.39,North,0,0.0,0.0,62,0.00,,,0.00,WUHU216HW,2013-09-04 23:49:00,
2013-09-04 18:54:00,78.1,64.1,30.38,North,0,0.0,0.0,62,0.00,,,0.00,WUHU216HW,2013-09-04 23:54:00,
2013-09-04 18:59:00,77.8,64.2,30.38,North,0,0.0,0.0,63,0.00,,,0.00,WUHU216HW,2013-09-04 23:59:00,
2013-09-04 19:04:00,77.4,63.8,30.38,North,0,0.0,0.0,63,0.00,,,0.00,WUHU216HW,2013-09-05 00:04:00,
2013-09-04 19:09:00,77.2,63.6,30.38,North,0,0.0,0.0,63,0.00,,,0.00,WUHU216HW,2013-09-05 00:09:00,
2013-09-04 19:14:00,76.9,63.7,30.38,North,0,0.0,0.0,64,0.00,,,0.00,WUHU216HW,2013-09-05 00:14:00,
2013-09-04 19:19:00,76.7,63.5,30.38,North,0,0.0,0.0,64,0.00,,,0.00,WUHU216HW,2013-09-05 00:19:00,
2013-09-04 19:24:00,76.3,63.6,30.38,North,0,0.0,0.0,65,0.00,,,0.00,WUHU216HW,2013-09-05 00:24:00,
2013-09-04 19:29:00,76.0,63.4,30.38,North,0,0.0,0.0,65,0.00,,,0.00,WUHU216HW,2013-09-05 00:29:00,
2013-09-04 19:34:00,75.8,63.6,30.38,North,0,0.0,0.0,66,0.00,,,0.00,WUHU216HW,2013-09-05 00:34:00,
2013-09-04 19:39:00,75.4,63.3,30.38,North,0,0.0,0.0,66,0.00,,,0.00,WUHU216HW,2013-09-05 00:39:00,
2013-09-04 19:44:00,75.1,62.9,30.38,North,0,0.0,0.0,66,0.00,,,0.00,WUHU216HW,2013-09-05 00:44:00,
2013-09-04 19:49:00,74.9,62.7,30.38,North,0,0.0,0.0,66,0.00,,,0.00,WUHU216HW,2013-09-05 00:49:00,
2013-09-04 19:54:00,74.5,62.8,30.39,North,0,0.0,0.0,67,0.00,,,0.00,WUHU216HW,2013-09-05 00:54:00,
2013-09-04 19:59:00,74.3,62.6,30.38,North,0,0.0,0.0,67,0.00,,,0.00,WUHU216HW,2013-09-05 00:59:00,
2013-09-04 20:04:00,74.2,62.9,30.38,North,0,0.0,0.0,68,0.00,,,0.00,WUHU216HW,2013-09-05 01:04:00,
2013-09-04 20:09:00,73.8,62.7,30.39,North,0,0.0,0.0,68,0.00,,,0.00,WUHU216HW,2013-09-05 01:09:00,
2013-09-04 20:14:00,73.6,62.9,30.39,North,0,0.0,0.0,69,0.00,,,0.00,WUHU216HW,2013-09-05 01:14:00,
2013-09-04 20:19:00,73.4,63.2,30.39,North,0,0.0,0.0,70,0.00,,,0.00,WUHU216HW,2013-09-05 01:19:00,
2013-09-04 20:24:00,73.3,63.0,30.39,North,0,0.0,0.0,70,0.00,,,0.00,WUHU216HW,2013-09-05 01:24:00,
2013-09-04 20:29:00,73.1,63.2,30.40,North,0,0.0,0.0,71,0.00,,,0.00,WUHU216HW,2013-09-05 01:29:00,
2013-09-04 20:34:00,72.9,63.0,30.40,North,0,0.0,0.0,71,0.00,,,0.00,WUHU216HW,2013-09-05 01:34:00,
2013-09-04 20:39:00,72.7,62.8,30.40,North,0,0.0,0.0,71,0.00,,,0.00,WUHU216HW,2013-09-05 01:39:00,
2013-09-04 20:44:00,72.7,62.8,30.40,North,0,0.0,0.0,71,0.00,,,0.00,WUHU216HW,2013-09-05 01:44:00,
2013-09-04 20:49:00,72.5,63.0,30.40,North,0,0.0,0.0,72,0.00,,,0.00,WUHU216HW,2013-09-05 01:49:00,
2013-09-04 20:54:00,72.4,62.8,30.40,North,0,0.0,0.0,72,0.00,,,0.00,WUHU216HW,2013-09-05 01:54:00,
2013-09-04 20:59:00,72.4,62.8,30.40,North,0,0.0,0.0,72,0.00,,,0.00,WUHU216HW,2013-09-05 01:59:00,
2013-09-04 21:04:00,72.2,63.1,30.41,North,0,0.0,0.0,73,0.00,,,0.00,WUHU216HW,2013-09-05 02:04:00,
2013-09-04 21:09:00,72.2,63.1,30.41,North,0,0.0,0.0,73,0.00,,,0.00,WUHU216HW,2013-09-05 02:09:00,
2013-09-04 21:14:00,72.0,62.9,30.41,North,0,0.0,0.0,73,0.00,,,0.00,WUHU216HW,2013-09-05 02:14:00,
2013-09-04 21:19:00,72.0,62.9,30.41,North,0,0.0,0.0,73,0.00,,,0.00,WUHU216HW,2013-09-05 02:19:00,
2013-09-04 21:24:00,71.8,62.7,30.41,North,0,0.0,0.0,73,0.00,,,0.00,WUHU216HW,2013-09-05 02:24:00,
2013-09-04 21:29:00,71.6,62.6,30.41,North,0,0.0,0.0,73,0.00,,,0.00,WUHU216HW,2013-09-05 02:29:00,
2013-09-04 21:34:00,71.6,62.6,30.41,North,0,0.0,0.0,73,0.00,,,0.00,WUHU216HW,2013-09-05 02:34:00,
2013-09-04 21:39:00,71.5,62.4,30.41,North,0,0.0,0.0,73,0.00,,,0.00,WUHU216HW,2013-09-05 02:39:00,
2013-09-04 21:44:00,71.3,62.2,30.41,North,0,0.0,0.0,73,0.00,,,0.00,WUHU216HW,2013-09-05 02:44:00,
2013-09-04 21:49:00,71.1,62.4,30.41,North,0,0.0,0.0,74,0.00,,,0.00,WUHU216HW,2013-09-05 02:49:00,
2013-09-04 21:54:00,70.9,62.2,30.41,North,0,0.0,0.0,74,0.00,,,0.00,WUHU216HW,2013-09-05 02:54:00,
2013-09-04 21:59:00,70.9,62.2,30.41,North,0,0.0,0.0,74,0.00,,,0.00,WUHU216HW,2013-09-05 02:59:00,
2013-09-04 22:04:00,70.7,62.0,30.41,North,0,0.0,0.0,74,0.00,,,0.00,WUHU216HW,2013-09-05 03:04:00,
2013-09-04 22:09:00,70.6,61.8,30.41,North,0,0.0,0.0,74,0.00,,,0.00,WUHU216HW,2013-09-05 03:09:00,
2013-09-04 22:14:00,70.4,61.7,30.41,North,0,0.0,0.0,74,0.00,,,0.00,WUHU216HW,2013-09-05 03:14:00,
2013-09-04 22:19:00,70.2,61.5,30.41,North,0,0.0,0.0,74,0.00,,,0.00,WUHU216HW,2013-09-05 03:19:00,
2013-09-04 22:24:00,70.2,61.8,30.41,North,0,0.0,0.0,75,0.00,,,0.00,WUHU216HW,2013-09-05 03:24:00,
2013-09-04 22:29:00,70.2,61.8,30.41,North,0,0.0,0.0,75,0.00,,,0.00,WUHU216HW,2013-09-05 03:29:00,
2013-09-04 22:34:00,70.0,62.0,30.41,North,0,0.0,0.0,76,0.00,,,0.00,WUHU216HW,2013-09-05 03:34:00,
2013-09-04 22:39:00,69.8,61.8,30.41,North,0,0.0,0.0,76,0.00,,,0.00,WUHU216HW,2013-09-05 03:39:00,
2013-09-04 22:44:00,69.8,62.2,30.41,North,0,0.0,0.0,77,0.00,,,0.00,WUHU216HW,2013-09-05 03:44:00,
2013-09-04 22:49:00,69.7,62.1,30.42,North,0,0.0,0.0,77,0.00,,,0.00,WUHU216HW,2013-09-05 03:49:00,
2013-09-04 22:54:00,69.5,61.9,30.42,North,0,0.0,0.0,77,0.00,,,0.00,WUHU216HW,2013-09-05 03:54:00,
2013-09-04 22:59:00,69.5,61.9,30.42,North,0,0.0,0.0,77,0.00,,,0.00,WUHU216HW,2013-09-05 03:59:00,
2013-09-04 23:01:00,69.5,61.9,30.42,North,0,0.0,0.0,77,0.00,,,0.00,WUHU216HW,2013-09-05 04:01:00,
2013-09-04 23:02:00,69.5,62.3,30.42,North,0,0.0,0.0,78,0.00,,,0.00,WUHU216HW,2013-09-05 04:02:00,
2013-09-04 23:07:00,69.3,62.1,30.42,North,0,0.0,0.0,78,0.00,,,0.00,WUHU216HW,2013-09-05 04:07:00,
2013-09-04 23:12:00,69.1,61.9,30.42,North,0,0.0,0.0,78,0.00,,,0.00,WUHU216HW,2013-09-05 04:12:00,
2013-09-04 23:17:00,69.1,62.4,30.42,North,0,0.0,0.0,79,0.00,,,0.00,WUHU216HW,2013-09-05 04:17:00,
2013-09-04 23:22:00,68.9,62.6,30.42,North,0,0.0,0.0,80,0.00,,,0.00,WUHU216HW,2013-09-05 04:22:00,
2013-09-04 23:27:00,68.8,62.4,30.42,North,0,0.0,0.0,80,0.00,,,0.00,WUHU216HW,2013-09-05 04:27:00,
2013-09-04 23:32:00,68.8,62.7,30.42,North,0,0.0,0.0,81,0.00,,,0.00,WUHU216HW,2013-09-05 04:32:00,
2013-09-04 23:37:00,68.6,62.6,30.42,North,0,0.0,0.0,81,0.00,,,0.00,WUHU216HW,2013-09-05 04:37:00,
2013-09-04 23:42:00,68.4,62.7,30.42,North,0,0.0,0.0,82,0.00,,,0.00,WUHU216HW,2013-09-05 04:42:00,
2013-09-04 23:47:00,68.4,62.7,30.41,North,0,0.0,0.0,82,0.00,,,0.00,WUHU216HW,2013-09-05 04:47:00,
2013-09-04 23:52:00,68.2,62.6,30.42,North,0,0.0,0.0,82,0.00,,,0.00,WUHU216HW,2013-09-05 04:52:00,
2013-09-04 23:57:00,68.2,62.6,30.42,North,0,0.0,0.0,82,0.00,,,0.00,WUHU216HW,2013-09-05 04:57:00,